sensor_id;sensor_type;location;lat;lon;timestamp;P1;durP1;ratioP1;P2;durP2;ratioP2
54937;SDS011;52756;52.826;6.214;2023-04-24T00:00:15;2.78;;;0.77;;
54937;SDS011;52756;52.826;6.214;2023-04-24T00:02:42;1.10;;;0.80;;
54937;SDS011;52756;52.826;6.214;2023-04-24T00:05:12;1.70;;;0.75;;
54937;SDS011;52756;52.826;6.214;2023-04-24T00:07:39;1.92;;;0.60;;
54937;SDS011;52756;52.826;6.214;2023-04-24T00:10:08;0.85;;;0.70;;
54937;SDS011;52756;52.826;6.214;2023-04-24T00:12:34;1.08;;;0.52;;
54937;SDS011;52756;52.826;6.214;2023-04-24T00:15:01;0.55;;;0.55;;
54937;SDS011;52756;52.826;6.214;2023-04-24T00:17:28;1.10;;;0.60;;
54937;SDS011;52756;52.826;6.214;2023-04-24T00:19:53;1.17;;;0.60;;
54937;SDS011;52756;52.826;6.214;2023-04-24T00:22:27;0.65;;;0.60;;
54937;SDS011;52756;52.826;6.214;2023-04-24T00:24:53;0.90;;;0.60;;
54937;SDS011;52756;52.826;6.214;2023-04-24T00:27:20;2.08;;;0.73;;
54937;SDS011;52756;52.826;6.214;2023-04-24T00:29:45;1.35;;;0.80;;
54937;SDS011;52756;52.826;6.214;2023-04-24T00:32:11;1.25;;;0.80;;
54937;SDS011;52756;52.826;6.214;2023-04-24T00:34:37;1.52;;;0.70;;
54937;SDS011;52756;52.826;6.214;2023-04-24T00:37:03;1.00;;;0.77;;
54937;SDS011;52756;52.826;6.214;2023-04-24T00:39:29;0.90;;;0.80;;
54937;SDS011;52756;52.826;6.214;2023-04-24T00:41:55;3.00;;;1.50;;
54937;SDS011;52756;52.826;6.214;2023-04-24T00:44:22;1.00;;;0.90;;
54937;SDS011;52756;52.826;6.214;2023-04-24T00:46:48;0.88;;;0.63;;
54937;SDS011;52756;52.826;6.214;2023-04-24T00:49:20;1.35;;;0.80;;
54937;SDS011;52756;52.826;6.214;2023-04-24T00:51:48;1.10;;;1.00;;
54937;SDS011;52756;52.826;6.214;2023-04-24T00:54:16;1.35;;;0.90;;
54937;SDS011;52756;52.826;6.214;2023-04-24T00:56:42;1.65;;;0.80;;
54937;SDS011;52756;52.826;6.214;2023-04-24T00:59:10;2.15;;;0.90;;
54937;SDS011;52756;52.826;6.214;2023-04-24T01:01:37;2.00;;;1.02;;
54937;SDS011;52756;52.826;6.214;2023-04-24T01:04:07;0.82;;;0.70;;
54937;SDS011;52756;52.826;6.214;2023-04-24T01:06:33;1.35;;;1.02;;
54937;SDS011;52756;52.826;6.214;2023-04-24T01:08:59;1.88;;;1.70;;
54937;SDS011;52756;52.826;6.214;2023-04-24T01:11:26;1.67;;;1.13;;
54937;SDS011;52756;52.826;6.214;2023-04-24T01:13:51;1.35;;;1.25;;
54937;SDS011;52756;52.826;6.214;2023-04-24T01:16:18;1.98;;;1.40;;
54937;SDS011;52756;52.826;6.214;2023-04-24T01:18:45;1.83;;;1.48;;
54937;SDS011;52756;52.826;6.214;2023-04-24T01:21:13;1.88;;;1.55;;
54937;SDS011;52756;52.826;6.214;2023-04-24T01:23:41;3.42;;;2.10;;
54937;SDS011;52756;52.826;6.214;2023-04-24T01:26:10;2.70;;;2.40;;
54937;SDS011;52756;52.826;6.214;2023-04-24T01:28:37;2.53;;;2.20;;
54937;SDS011;52756;52.826;6.214;2023-04-24T01:31:03;2.42;;;2.03;;
54937;SDS011;52756;52.826;6.214;2023-04-24T01:33:29;2.40;;;2.08;;
54937;SDS011;52756;52.826;6.214;2023-04-24T01:35:55;3.28;;;2.97;;
54937;SDS011;52756;52.826;6.214;2023-04-24T01:38:21;3.50;;;3.10;;
54937;SDS011;52756;52.826;6.214;2023-04-24T01:40:47;4.97;;;4.30;;
54937;SDS011;52756;52.826;6.214;2023-04-24T01:43:13;4.18;;;3.78;;
54937;SDS011;52756;52.826;6.214;2023-04-24T01:45:39;4.03;;;3.60;;
54937;SDS011;52756;52.826;6.214;2023-04-24T01:48:04;2.50;;;2.30;;
54937;SDS011;52756;52.826;6.214;2023-04-24T01:50:30;3.30;;;3.00;;
54937;SDS011;52756;52.826;6.214;2023-04-24T01:52:56;4.03;;;3.63;;
54937;SDS011;52756;52.826;6.214;2023-04-24T01:55:22;3.22;;;2.92;;
54937;SDS011;52756;52.826;6.214;2023-04-24T01:57:47;3.90;;;3.50;;
54937;SDS011;52756;52.826;6.214;2023-04-24T02:00:15;3.08;;;2.70;;
54937;SDS011;52756;52.826;6.214;2023-04-24T02:02:40;2.65;;;2.20;;
54937;SDS011;52756;52.826;6.214;2023-04-24T02:05:07;2.40;;;2.20;;
54937;SDS011;52756;52.826;6.214;2023-04-24T02:07:33;2.83;;;2.55;;
54937;SDS011;52756;52.826;6.214;2023-04-24T02:09:59;2.88;;;2.45;;
54937;SDS011;52756;52.826;6.214;2023-04-24T02:12:24;3.30;;;3.00;;
54937;SDS011;52756;52.826;6.214;2023-04-24T02:14:50;3.17;;;2.63;;
54937;SDS011;52756;52.826;6.214;2023-04-24T02:17:16;3.10;;;2.38;;
54937;SDS011;52756;52.826;6.214;2023-04-24T02:19:42;2.42;;;1.90;;
54937;SDS011;52756;52.826;6.214;2023-04-24T02:22:08;2.70;;;2.28;;
54937;SDS011;52756;52.826;6.214;2023-04-24T02:24:34;2.55;;;2.20;;
54937;SDS011;52756;52.826;6.214;2023-04-24T02:26:59;2.75;;;2.00;;
54937;SDS011;52756;52.826;6.214;2023-04-24T02:29:27;2.60;;;2.03;;
54937;SDS011;52756;52.826;6.214;2023-04-24T02:31:52;3.25;;;2.28;;
54937;SDS011;52756;52.826;6.214;2023-04-24T02:34:23;1.98;;;1.70;;
54937;SDS011;52756;52.826;6.214;2023-04-24T02:36:49;1.58;;;1.48;;
54937;SDS011;52756;52.826;6.214;2023-04-24T02:39:15;3.45;;;1.80;;
54937;SDS011;52756;52.826;6.214;2023-04-24T02:41:42;2.10;;;1.73;;
54937;SDS011;52756;52.826;6.214;2023-04-24T02:44:08;2.17;;;1.50;;
54937;SDS011;52756;52.826;6.214;2023-04-24T02:46:34;1.35;;;1.25;;
54937;SDS011;52756;52.826;6.214;2023-04-24T02:49:00;2.28;;;1.80;;
54937;SDS011;52756;52.826;6.214;2023-04-24T02:51:26;3.65;;;1.90;;
54937;SDS011;52756;52.826;6.214;2023-04-24T02:53:52;2.10;;;1.60;;
54937;SDS011;52756;52.826;6.214;2023-04-24T02:56:18;2.08;;;1.50;;
54937;SDS011;52756;52.826;6.214;2023-04-24T02:58:43;2.20;;;1.58;;
54937;SDS011;52756;52.826;6.214;2023-04-24T03:01:09;2.08;;;1.67;;
54937;SDS011;52756;52.826;6.214;2023-04-24T03:03:35;3.88;;;2.30;;
54937;SDS011;52756;52.826;6.214;2023-04-24T03:06:02;4.10;;;2.25;;
54937;SDS011;52756;52.826;6.214;2023-04-24T03:08:30;2.92;;;2.53;;
54937;SDS011;52756;52.826;6.214;2023-04-24T03:10:57;2.35;;;2.10;;
54937;SDS011;52756;52.826;6.214;2023-04-24T03:13:22;3.33;;;2.50;;
54937;SDS011;52756;52.826;6.214;2023-04-24T03:15:48;2.97;;;1.95;;
54937;SDS011;52756;52.826;6.214;2023-04-24T03:18:14;3.58;;;2.20;;
54937;SDS011;52756;52.826;6.214;2023-04-24T03:20:40;2.45;;;1.92;;
54937;SDS011;52756;52.826;6.214;2023-04-24T03:23:06;2.22;;;1.90;;
54937;SDS011;52756;52.826;6.214;2023-04-24T03:25:31;2.58;;;2.08;;
54937;SDS011;52756;52.826;6.214;2023-04-24T03:27:57;2.83;;;2.25;;
54937;SDS011;52756;52.826;6.214;2023-04-24T03:30:23;2.50;;;2.00;;
54937;SDS011;52756;52.826;6.214;2023-04-24T03:32:49;2.67;;;2.20;;
54937;SDS011;52756;52.826;6.214;2023-04-24T03:35:14;2.20;;;1.73;;
54937;SDS011;52756;52.826;6.214;2023-04-24T03:37:40;2.08;;;1.75;;
54937;SDS011;52756;52.826;6.214;2023-04-24T03:40:06;2.65;;;1.63;;
54937;SDS011;52756;52.826;6.214;2023-04-24T03:42:33;3.25;;;1.73;;
54937;SDS011;52756;52.826;6.214;2023-04-24T03:44:58;2.60;;;1.40;;
54937;SDS011;52756;52.826;6.214;2023-04-24T03:47:24;1.63;;;1.23;;
54937;SDS011;52756;52.826;6.214;2023-04-24T03:49:50;2.45;;;1.20;;
54937;SDS011;52756;52.826;6.214;2023-04-24T03:52:16;2.47;;;1.70;;
54937;SDS011;52756;52.826;6.214;2023-04-24T03:54:42;1.50;;;1.00;;
54937;SDS011;52756;52.826;6.214;2023-04-24T03:57:08;1.33;;;1.13;;
54937;SDS011;52756;52.826;6.214;2023-04-24T03:59:33;3.13;;;1.10;;
54937;SDS011;52756;52.826;6.214;2023-04-24T04:01:59;2.55;;;1.35;;
54937;SDS011;52756;52.826;6.214;2023-04-24T04:04:25;1.95;;;1.38;;
54937;SDS011;52756;52.826;6.214;2023-04-24T04:06:50;1.75;;;1.30;;
54937;SDS011;52756;52.826;6.214;2023-04-24T04:09:17;0.90;;;0.80;;
54937;SDS011;52756;52.826;6.214;2023-04-24T04:11:42;1.33;;;0.88;;
54937;SDS011;52756;52.826;6.214;2023-04-24T04:14:08;1.05;;;0.70;;
54937;SDS011;52756;52.826;6.214;2023-04-24T04:16:34;1.50;;;0.80;;
54937;SDS011;52756;52.826;6.214;2023-04-24T04:19:01;0.70;;;0.45;;
54937;SDS011;52756;52.826;6.214;2023-04-24T04:21:28;0.90;;;0.60;;
54937;SDS011;52756;52.826;6.214;2023-04-24T04:23:54;0.60;;;0.50;;
54937;SDS011;52756;52.826;6.214;2023-04-24T04:26:19;0.75;;;0.68;;
54937;SDS011;52756;52.826;6.214;2023-04-24T04:28:46;0.95;;;0.50;;
54937;SDS011;52756;52.826;6.214;2023-04-24T04:31:12;0.70;;;0.50;;
54937;SDS011;52756;52.826;6.214;2023-04-24T04:33:38;1.73;;;1.33;;
54937;SDS011;52756;52.826;6.214;2023-04-24T04:36:04;2.17;;;1.67;;
54937;SDS011;52756;52.826;6.214;2023-04-24T04:38:30;1.65;;;1.35;;
54937;SDS011;52756;52.826;6.214;2023-04-24T04:40:56;2.00;;;1.70;;
54937;SDS011;52756;52.826;6.214;2023-04-24T04:43:22;3.00;;;2.00;;
54937;SDS011;52756;52.826;6.214;2023-04-24T04:45:49;2.33;;;1.90;;
54937;SDS011;52756;52.826;6.214;2023-04-24T04:48:16;1.73;;;1.45;;
54937;SDS011;52756;52.826;6.214;2023-04-24T04:50:43;3.33;;;2.00;;
54937;SDS011;52756;52.826;6.214;2023-04-24T04:53:08;2.65;;;2.28;;
54937;SDS011;52756;52.826;6.214;2023-04-24T04:55:34;3.92;;;2.33;;
54937;SDS011;52756;52.826;6.214;2023-04-24T04:58:00;3.00;;;2.67;;
54937;SDS011;52756;52.826;6.214;2023-04-24T05:00:25;5.72;;;3.13;;
54937;SDS011;52756;52.826;6.214;2023-04-24T05:02:52;3.92;;;3.08;;
54937;SDS011;52756;52.826;6.214;2023-04-24T05:05:18;3.95;;;3.15;;
54937;SDS011;52756;52.826;6.214;2023-04-24T05:07:44;4.50;;;3.25;;
54937;SDS011;52756;52.826;6.214;2023-04-24T05:10:09;4.97;;;3.63;;
54937;SDS011;52756;52.826;6.214;2023-04-24T05:12:35;5.57;;;3.78;;
54937;SDS011;52756;52.826;6.214;2023-04-24T05:15:01;4.43;;;3.55;;
54937;SDS011;52756;52.826;6.214;2023-04-24T05:17:27;3.88;;;3.45;;
54937;SDS011;52756;52.826;6.214;2023-04-24T05:19:53;4.80;;;3.17;;
54937;SDS011;52756;52.826;6.214;2023-04-24T05:22:19;4.03;;;3.63;;
54937;SDS011;52756;52.826;6.214;2023-04-24T05:24:46;3.60;;;2.85;;
54937;SDS011;52756;52.826;6.214;2023-04-24T05:27:12;4.18;;;3.10;;
54937;SDS011;52756;52.826;6.214;2023-04-24T05:29:38;4.93;;;3.65;;
54937;SDS011;52756;52.826;6.214;2023-04-24T05:32:05;5.28;;;4.05;;
54937;SDS011;52756;52.826;6.214;2023-04-24T05:34:30;4.88;;;4.03;;
54937;SDS011;52756;52.826;6.214;2023-04-24T05:36:56;4.15;;;3.40;;
54937;SDS011;52756;52.826;6.214;2023-04-24T05:39:22;3.75;;;3.35;;
54937;SDS011;52756;52.826;6.214;2023-04-24T05:41:50;3.72;;;3.05;;
54937;SDS011;52756;52.826;6.214;2023-04-24T05:44:16;5.00;;;3.25;;
54937;SDS011;52756;52.826;6.214;2023-04-24T05:46:41;3.40;;;2.90;;
54937;SDS011;52756;52.826;6.214;2023-04-24T05:49:07;4.53;;;3.03;;
54937;SDS011;52756;52.826;6.214;2023-04-24T05:51:33;3.33;;;2.58;;
54937;SDS011;52756;52.826;6.214;2023-04-24T05:53:58;3.17;;;2.35;;
54937;SDS011;52756;52.826;6.214;2023-04-24T05:56:24;3.30;;;2.50;;
54937;SDS011;52756;52.826;6.214;2023-04-24T05:58:50;5.20;;;2.70;;
54937;SDS011;52756;52.826;6.214;2023-04-24T06:01:16;2.85;;;2.22;;
54937;SDS011;52756;52.826;6.214;2023-04-24T06:03:42;3.13;;;2.17;;
54937;SDS011;52756;52.826;6.214;2023-04-24T06:06:07;3.92;;;2.22;;
54937;SDS011;52756;52.826;6.214;2023-04-24T06:08:34;4.53;;;2.25;;
54937;SDS011;52756;52.826;6.214;2023-04-24T06:11:00;3.35;;;2.40;;
54937;SDS011;52756;52.826;6.214;2023-04-24T06:13:26;2.97;;;2.33;;
54937;SDS011;52756;52.826;6.214;2023-04-24T06:15:52;4.38;;;3.10;;
54937;SDS011;52756;52.826;6.214;2023-04-24T06:18:17;4.97;;;3.33;;
54937;SDS011;52756;52.826;6.214;2023-04-24T06:20:44;4.18;;;3.05;;
54937;SDS011;52756;52.826;6.214;2023-04-24T06:23:11;6.32;;;3.35;;
54937;SDS011;52756;52.826;6.214;2023-04-24T06:25:37;5.45;;;3.67;;
54937;SDS011;52756;52.826;6.214;2023-04-24T06:28:03;4.63;;;3.40;;
54937;SDS011;52756;52.826;6.214;2023-04-24T06:30:29;6.10;;;3.75;;
54937;SDS011;52756;52.826;6.214;2023-04-24T06:32:55;6.32;;;4.25;;
54937;SDS011;52756;52.826;6.214;2023-04-24T06:35:21;5.18;;;3.88;;
54937;SDS011;52756;52.826;6.214;2023-04-24T06:37:46;6.18;;;3.65;;
54937;SDS011;52756;52.826;6.214;2023-04-24T06:40:12;8.90;;;5.68;;
54937;SDS011;52756;52.826;6.214;2023-04-24T06:42:38;7.93;;;4.95;;
54937;SDS011;52756;52.826;6.214;2023-04-24T06:45:04;6.43;;;3.83;;
54937;SDS011;52756;52.826;6.214;2023-04-24T06:47:30;6.68;;;5.03;;
54937;SDS011;52756;52.826;6.214;2023-04-24T06:49:57;7.00;;;4.38;;
54937;SDS011;52756;52.826;6.214;2023-04-24T06:52:23;6.53;;;4.95;;
54937;SDS011;52756;52.826;6.214;2023-04-24T06:54:49;6.22;;;4.35;;
54937;SDS011;52756;52.826;6.214;2023-04-24T06:57:15;4.95;;;3.90;;
54937;SDS011;52756;52.826;6.214;2023-04-24T06:59:43;7.75;;;3.80;;
54937;SDS011;52756;52.826;6.214;2023-04-24T07:02:09;4.18;;;2.97;;
54937;SDS011;52756;52.826;6.214;2023-04-24T07:04:35;4.18;;;2.80;;
54937;SDS011;52756;52.826;6.214;2023-04-24T07:07:02;5.97;;;3.25;;
54937;SDS011;52756;52.826;6.214;2023-04-24T07:09:27;5.10;;;2.80;;
54937;SDS011;52756;52.826;6.214;2023-04-24T07:11:56;4.43;;;2.55;;
54937;SDS011;52756;52.826;6.214;2023-04-24T07:14:22;3.55;;;2.30;;
54937;SDS011;52756;52.826;6.214;2023-04-24T07:16:48;3.80;;;2.00;;
54937;SDS011;52756;52.826;6.214;2023-04-24T07:19:14;4.55;;;2.50;;
54937;SDS011;52756;52.826;6.214;2023-04-24T07:21:40;3.70;;;2.00;;
54937;SDS011;52756;52.826;6.214;2023-04-24T07:24:06;2.58;;;1.40;;
54937;SDS011;52756;52.826;6.214;2023-04-24T07:26:36;2.15;;;1.40;;
54937;SDS011;52756;52.826;6.214;2023-04-24T07:29:03;4.05;;;1.60;;
54937;SDS011;52756;52.826;6.214;2023-04-24T07:31:28;3.13;;;1.33;;
54937;SDS011;52756;52.826;6.214;2023-04-24T07:33:55;4.10;;;1.70;;
54937;SDS011;52756;52.826;6.214;2023-04-24T07:36:23;4.70;;;2.10;;
54937;SDS011;52756;52.826;6.214;2023-04-24T07:38:49;4.95;;;1.98;;
54937;SDS011;52756;52.826;6.214;2023-04-24T07:41:15;6.13;;;3.10;;
54937;SDS011;52756;52.826;6.214;2023-04-24T07:43:41;6.60;;;4.22;;
54937;SDS011;52756;52.826;6.214;2023-04-24T07:46:07;8.18;;;5.07;;
54937;SDS011;52756;52.826;6.214;2023-04-24T07:48:33;8.82;;;6.80;;
54937;SDS011;52756;52.826;6.214;2023-04-24T07:51:00;11.77;;;7.20;;
54937;SDS011;52756;52.826;6.214;2023-04-24T07:53:26;17.92;;;9.18;;
54937;SDS011;52756;52.826;6.214;2023-04-24T07:55:51;12.73;;;10.15;;
54937;SDS011;52756;52.826;6.214;2023-04-24T07:58:18;19.23;;;10.68;;
54937;SDS011;52756;52.826;6.214;2023-04-24T08:00:44;15.48;;;10.02;;
54937;SDS011;52756;52.826;6.214;2023-04-24T08:03:10;15.73;;;10.50;;
54937;SDS011;52756;52.826;6.214;2023-04-24T08:05:37;18.05;;;10.30;;
54937;SDS011;52756;52.826;6.214;2023-04-24T08:08:03;15.93;;;9.05;;
54937;SDS011;52756;52.826;6.214;2023-04-24T08:10:29;12.60;;;8.90;;
54937;SDS011;52756;52.826;6.214;2023-04-24T08:12:55;14.82;;;9.88;;
54937;SDS011;52756;52.826;6.214;2023-04-24T08:15:21;16.35;;;9.90;;
54937;SDS011;52756;52.826;6.214;2023-04-24T08:17:46;17.98;;;11.43;;
54937;SDS011;52756;52.826;6.214;2023-04-24T08:20:12;16.60;;;11.88;;
54937;SDS011;52756;52.826;6.214;2023-04-24T08:22:41;22.77;;;13.02;;
54937;SDS011;52756;52.826;6.214;2023-04-24T08:25:07;18.45;;;12.95;;
54937;SDS011;52756;52.826;6.214;2023-04-24T08:27:33;18.58;;;13.73;;
54937;SDS011;52756;52.826;6.214;2023-04-24T08:29:59;19.58;;;12.75;;
54937;SDS011;52756;52.826;6.214;2023-04-24T08:32:25;18.52;;;13.50;;
54937;SDS011;52756;52.826;6.214;2023-04-24T08:34:55;19.08;;;12.25;;
54937;SDS011;52756;52.826;6.214;2023-04-24T08:37:21;19.55;;;12.80;;
54937;SDS011;52756;52.826;6.214;2023-04-24T08:39:48;16.77;;;12.05;;
54937;SDS011;52756;52.826;6.214;2023-04-24T08:42:14;16.40;;;12.07;;
54937;SDS011;52756;52.826;6.214;2023-04-24T08:44:42;13.95;;;10.70;;
54937;SDS011;52756;52.826;6.214;2023-04-24T08:47:09;14.25;;;10.80;;
54937;SDS011;52756;52.826;6.214;2023-04-24T08:49:36;17.08;;;11.55;;
54937;SDS011;52756;52.826;6.214;2023-04-24T08:52:02;17.92;;;10.45;;
54937;SDS011;52756;52.826;6.214;2023-04-24T08:54:28;13.10;;;9.95;;
54937;SDS011;52756;52.826;6.214;2023-04-24T08:56:57;16.30;;;9.75;;
54937;SDS011;52756;52.826;6.214;2023-04-24T08:59:26;13.80;;;9.85;;
54937;SDS011;52756;52.826;6.214;2023-04-24T09:01:53;15.80;;;9.10;;
54937;SDS011;52756;52.826;6.214;2023-04-24T09:04:20;13.02;;;8.50;;
54937;SDS011;52756;52.826;6.214;2023-04-24T09:06:49;14.15;;;8.90;;
54937;SDS011;52756;52.826;6.214;2023-04-24T09:09:22;12.48;;;8.35;;
54937;SDS011;52756;52.826;6.214;2023-04-24T09:11:49;13.40;;;7.75;;
54937;SDS011;52756;52.826;6.214;2023-04-24T09:14:16;11.35;;;7.20;;
54937;SDS011;52756;52.826;6.214;2023-04-24T09:16:42;9.63;;;6.53;;
54937;SDS011;52756;52.826;6.214;2023-04-24T09:19:08;15.02;;;7.70;;
54937;SDS011;52756;52.826;6.214;2023-04-24T09:21:34;8.70;;;6.10;;
54937;SDS011;52756;52.826;6.214;2023-04-24T09:24:01;9.82;;;6.15;;
54937;SDS011;52756;52.826;6.214;2023-04-24T09:26:33;13.73;;;6.88;;
54937;SDS011;52756;52.826;6.214;2023-04-24T09:29:00;14.18;;;6.57;;
54937;SDS011;52756;52.826;6.214;2023-04-24T09:31:27;10.45;;;6.07;;
54937;SDS011;52756;52.826;6.214;2023-04-24T09:33:55;12.82;;;7.68;;
54937;SDS011;52756;52.826;6.214;2023-04-24T09:36:37;11.90;;;7.30;;
54937;SDS011;52756;52.826;6.214;2023-04-24T09:39:08;12.98;;;6.20;;
54937;SDS011;52756;52.826;6.214;2023-04-24T09:41:45;9.18;;;5.85;;
54937;SDS011;52756;52.826;6.214;2023-04-24T09:44:21;9.80;;;5.63;;
54937;SDS011;52756;52.826;6.214;2023-04-24T09:46:51;11.75;;;5.57;;
54937;SDS011;52756;52.826;6.214;2023-04-24T09:49:26;9.63;;;5.03;;
54937;SDS011;52756;52.826;6.214;2023-04-24T09:52:06;7.60;;;4.55;;
54937;SDS011;52756;52.826;6.214;2023-04-24T09:54:33;9.63;;;4.45;;
54937;SDS011;52756;52.826;6.214;2023-04-24T09:56:59;8.50;;;4.10;;
54937;SDS011;52756;52.826;6.214;2023-04-24T09:59:25;12.70;;;4.00;;
54937;SDS011;52756;52.826;6.214;2023-04-24T10:01:51;11.68;;;4.50;;
54937;SDS011;52756;52.826;6.214;2023-04-24T10:04:27;12.77;;;4.50;;
54937;SDS011;52756;52.826;6.214;2023-04-24T10:06:55;8.90;;;4.00;;
54937;SDS011;52756;52.826;6.214;2023-04-24T10:09:22;10.45;;;3.88;;
54937;SDS011;52756;52.826;6.214;2023-04-24T10:11:50;13.40;;;3.92;;
54937;SDS011;52756;52.826;6.214;2023-04-24T10:14:22;7.40;;;3.45;;
54937;SDS011;52756;52.826;6.214;2023-04-24T10:16:49;13.38;;;3.60;;
54937;SDS011;52756;52.826;6.214;2023-04-24T10:19:16;12.43;;;2.97;;
54937;SDS011;52756;52.826;6.214;2023-04-24T10:21:45;11.82;;;3.00;;
54937;SDS011;52756;52.826;6.214;2023-04-24T10:24:21;9.00;;;4.82;;
54937;SDS011;52756;52.826;6.214;2023-04-24T10:26:46;12.73;;;3.80;;
54937;SDS011;52756;52.826;6.214;2023-04-24T10:29:13;5.50;;;2.65;;
54937;SDS011;52756;52.826;6.214;2023-04-24T10:31:40;11.15;;;3.17;;
54937;SDS011;52756;52.826;6.214;2023-04-24T10:34:07;8.75;;;2.70;;
54937;SDS011;52756;52.826;6.214;2023-04-24T10:36:35;9.35;;;3.38;;
54937;SDS011;52756;52.826;6.214;2023-04-24T10:39:06;9.40;;;2.88;;
54937;SDS011;52756;52.826;6.214;2023-04-24T10:41:39;11.27;;;3.80;;
54937;SDS011;52756;52.826;6.214;2023-04-24T10:44:13;9.93;;;2.40;;
54937;SDS011;52756;52.826;6.214;2023-04-24T10:46:44;10.98;;;2.90;;
54937;SDS011;52756;52.826;6.214;2023-04-24T10:49:12;9.02;;;2.53;;
54937;SDS011;52756;52.826;6.214;2023-04-24T10:54:25;7.32;;;2.40;;
54937;SDS011;52756;52.826;6.214;2023-04-24T10:56:52;9.75;;;2.53;;
54937;SDS011;52756;52.826;6.214;2023-04-24T10:59:27;13.05;;;3.03;;
54937;SDS011;52756;52.826;6.214;2023-04-24T11:02:02;7.07;;;2.85;;
54937;SDS011;52756;52.826;6.214;2023-04-24T11:04:31;9.90;;;2.80;;
54937;SDS011;52756;52.826;6.214;2023-04-24T11:06:57;8.35;;;2.65;;
54937;SDS011;52756;52.826;6.214;2023-04-24T11:09:26;8.48;;;2.20;;
54937;SDS011;52756;52.826;6.214;2023-04-24T11:12:02;6.63;;;3.05;;
54937;SDS011;52756;52.826;6.214;2023-04-24T11:17:34;7.38;;;2.83;;
54937;SDS011;52756;52.826;6.214;2023-04-24T11:20:09;8.35;;;1.92;;
54937;SDS011;52756;52.826;6.214;2023-04-24T11:22:37;9.88;;;2.30;;
54937;SDS011;52756;52.826;6.214;2023-04-24T11:25:07;7.38;;;2.22;;
54937;SDS011;52756;52.826;6.214;2023-04-24T11:27:41;6.32;;;1.88;;
54937;SDS011;52756;52.826;6.214;2023-04-24T11:30:08;7.85;;;1.70;;
54937;SDS011;52756;52.826;6.214;2023-04-24T11:32:36;6.45;;;1.73;;
54937;SDS011;52756;52.826;6.214;2023-04-24T11:37:38;7.05;;;1.80;;
54937;SDS011;52756;52.826;6.214;2023-04-24T11:40:09;6.97;;;2.53;;
54937;SDS011;52756;52.826;6.214;2023-04-24T11:42:37;7.20;;;2.10;;
54937;SDS011;52756;52.826;6.214;2023-04-24T11:45:08;8.77;;;2.17;;
54937;SDS011;52756;52.826;6.214;2023-04-24T11:47:38;9.90;;;2.17;;
54937;SDS011;52756;52.826;6.214;2023-04-24T11:50:05;6.03;;;1.92;;
54937;SDS011;52756;52.826;6.214;2023-04-24T11:52:38;8.30;;;2.15;;
54937;SDS011;52756;52.826;6.214;2023-04-24T11:55:07;5.68;;;2.00;;
54937;SDS011;52756;52.826;6.214;2023-04-24T11:57:39;6.25;;;1.70;;
54937;SDS011;52756;52.826;6.214;2023-04-24T12:00:14;5.80;;;1.30;;
54937;SDS011;52756;52.826;6.214;2023-04-24T12:02:47;3.60;;;1.25;;
54937;SDS011;52756;52.826;6.214;2023-04-24T12:05:20;6.25;;;1.50;;
54937;SDS011;52756;52.826;6.214;2023-04-24T12:07:53;5.40;;;1.45;;
54937;SDS011;52756;52.826;6.214;2023-04-24T12:10:22;3.35;;;1.02;;
54937;SDS011;52756;52.826;6.214;2023-04-24T12:12:49;4.78;;;0.93;;
54937;SDS011;52756;52.826;6.214;2023-04-24T12:15:17;1.88;;;1.20;;
54937;SDS011;52756;52.826;6.214;2023-04-24T12:17:43;2.50;;;0.82;;
54937;SDS011;52756;52.826;6.214;2023-04-24T12:20:09;5.88;;;1.20;;
54937;SDS011;52756;52.826;6.214;2023-04-24T12:22:56;4.03;;;1.08;;
54937;SDS011;52756;52.826;6.214;2023-04-24T12:25:23;5.65;;;1.08;;
54937;SDS011;52756;52.826;6.214;2023-04-24T12:27:52;6.75;;;1.05;;
54937;SDS011;52756;52.826;6.214;2023-04-24T12:30:20;1.85;;;0.70;;
54937;SDS011;52756;52.826;6.214;2023-04-24T12:32:51;4.45;;;1.10;;
54937;SDS011;52756;52.826;6.214;2023-04-24T12:35:20;2.58;;;0.68;;
54937;SDS011;52756;52.826;6.214;2023-04-24T12:37:47;9.43;;;1.50;;
54937;SDS011;52756;52.826;6.214;2023-04-24T12:40:14;3.55;;;1.05;;
54937;SDS011;52756;52.826;6.214;2023-04-24T12:42:47;4.78;;;0.70;;
54937;SDS011;52756;52.826;6.214;2023-04-24T12:45:15;4.82;;;0.80;;
54937;SDS011;52756;52.826;6.214;2023-04-24T12:47:42;5.60;;;0.98;;
54937;SDS011;52756;52.826;6.214;2023-04-24T12:50:09;4.00;;;0.95;;
54937;SDS011;52756;52.826;6.214;2023-04-24T12:52:36;5.75;;;1.05;;
54937;SDS011;52756;52.826;6.214;2023-04-24T12:55:03;5.82;;;1.30;;
54937;SDS011;52756;52.826;6.214;2023-04-24T12:57:30;5.65;;;1.10;;
54937;SDS011;52756;52.826;6.214;2023-04-24T12:59:56;5.20;;;0.70;;
54937;SDS011;52756;52.826;6.214;2023-04-24T13:02:24;5.28;;;1.02;;
54937;SDS011;52756;52.826;6.214;2023-04-24T13:04:51;6.85;;;1.00;;
54937;SDS011;52756;52.826;6.214;2023-04-24T13:07:17;2.92;;;0.80;;
54937;SDS011;52756;52.826;6.214;2023-04-24T13:09:43;2.90;;;0.75;;
54937;SDS011;52756;52.826;6.214;2023-04-24T13:12:10;4.18;;;0.77;;
54937;SDS011;52756;52.826;6.214;2023-04-24T13:14:36;5.88;;;0.95;;
54937;SDS011;52756;52.826;6.214;2023-04-24T13:17:03;3.97;;;1.05;;
54937;SDS011;52756;52.826;6.214;2023-04-24T13:19:29;6.70;;;1.38;;
54937;SDS011;52756;52.826;6.214;2023-04-24T13:22:00;4.25;;;1.00;;
54937;SDS011;52756;52.826;6.214;2023-04-24T13:24:26;5.07;;;1.00;;
54937;SDS011;52756;52.826;6.214;2023-04-24T13:26:52;4.50;;;1.33;;
54937;SDS011;52756;52.826;6.214;2023-04-24T13:29:18;5.78;;;1.42;;
54937;SDS011;52756;52.826;6.214;2023-04-24T13:31:45;4.97;;;1.88;;
54937;SDS011;52756;52.826;6.214;2023-04-24T13:34:12;5.28;;;1.15;;
54937;SDS011;52756;52.826;6.214;2023-04-24T13:36:38;7.03;;;1.35;;
54937;SDS011;52756;52.826;6.214;2023-04-24T13:39:05;5.80;;;1.35;;
54937;SDS011;52756;52.826;6.214;2023-04-24T13:41:33;6.07;;;1.30;;
54937;SDS011;52756;52.826;6.214;2023-04-24T13:43:59;7.28;;;1.10;;
54937;SDS011;52756;52.826;6.214;2023-04-24T13:46:25;7.78;;;2.00;;
54937;SDS011;52756;52.826;6.214;2023-04-24T13:48:50;7.30;;;2.20;;
54937;SDS011;52756;52.826;6.214;2023-04-24T13:51:16;6.68;;;1.40;;
54937;SDS011;52756;52.826;6.214;2023-04-24T13:53:42;7.40;;;1.60;;
54937;SDS011;52756;52.826;6.214;2023-04-24T13:56:08;8.20;;;2.30;;
54937;SDS011;52756;52.826;6.214;2023-04-24T13:58:34;6.20;;;1.65;;
54937;SDS011;52756;52.826;6.214;2023-04-24T14:01:02;15.63;;;2.58;;
54937;SDS011;52756;52.826;6.214;2023-04-24T14:03:28;11.85;;;2.30;;
54937;SDS011;52756;52.826;6.214;2023-04-24T14:05:55;11.02;;;2.67;;
54937;SDS011;52756;52.826;6.214;2023-04-24T14:08:20;9.50;;;2.00;;
54937;SDS011;52756;52.826;6.214;2023-04-24T14:10:46;8.75;;;2.00;;
54937;SDS011;52756;52.826;6.214;2023-04-24T14:13:12;8.68;;;2.22;;
54937;SDS011;52756;52.826;6.214;2023-04-24T14:15:38;7.78;;;1.70;;
54937;SDS011;52756;52.826;6.214;2023-04-24T14:18:03;7.60;;;1.70;;
54937;SDS011;52756;52.826;6.214;2023-04-24T14:20:29;12.30;;;2.55;;
54937;SDS011;52756;52.826;6.214;2023-04-24T14:22:55;12.57;;;2.80;;
54937;SDS011;52756;52.826;6.214;2023-04-24T14:25:24;7.57;;;1.80;;
54937;SDS011;52756;52.826;6.214;2023-04-24T14:27:50;9.77;;;2.92;;
54937;SDS011;52756;52.826;6.214;2023-04-24T14:30:16;8.85;;;2.08;;
54937;SDS011;52756;52.826;6.214;2023-04-24T14:32:45;7.68;;;2.33;;
54937;SDS011;52756;52.826;6.214;2023-04-24T14:35:11;10.93;;;2.20;;
54937;SDS011;52756;52.826;6.214;2023-04-24T14:37:36;12.43;;;3.10;;
54937;SDS011;52756;52.826;6.214;2023-04-24T14:40:03;11.20;;;3.13;;
54937;SDS011;52756;52.826;6.214;2023-04-24T14:42:32;6.07;;;1.75;;
54937;SDS011;52756;52.826;6.214;2023-04-24T14:44:59;8.10;;;2.50;;
54937;SDS011;52756;52.826;6.214;2023-04-24T14:47:24;11.80;;;2.97;;
54937;SDS011;52756;52.826;6.214;2023-04-24T14:49:50;6.80;;;2.10;;
54937;SDS011;52756;52.826;6.214;2023-04-24T14:52:16;10.98;;;2.65;;